createdAt,value
2022-08-31T00:00:44.839Z,3.90
2022-08-31T00:03:32.425Z,4.10
2022-08-31T00:06:03.408Z,3.30
2022-08-31T00:08:33.702Z,3.60
2022-08-31T00:11:02.311Z,3.90
2022-08-31T00:13:30.807Z,3.10
2022-08-31T00:15:59.105Z,3.50
2022-08-31T00:18:28.030Z,3.30
2022-08-31T00:20:56.370Z,3.20
2022-08-31T00:23:25.520Z,3.30
2022-08-31T00:25:53.987Z,2.60
2022-08-31T00:28:22.362Z,3.20
2022-08-31T00:30:51.722Z,3.30
2022-08-31T00:33:20.901Z,3.00
2022-08-31T00:37:15.452Z,2.90
2022-08-31T00:39:43.774Z,4.10
2022-08-31T00:42:12.658Z,4.20
2022-08-31T00:44:41.926Z,3.80
2022-08-31T00:47:10.458Z,3.70
2022-08-31T00:49:43.026Z,3.40
2022-08-31T00:52:16.450Z,3.00
2022-08-31T00:55:09.739Z,3.00
2022-08-31T00:57:43.143Z,3.30
2022-08-31T01:00:18.896Z,2.70
2022-08-31T01:02:48.214Z,3.20
2022-08-31T01:05:18.679Z,3.00
2022-08-31T01:07:50.546Z,3.00
2022-08-31T01:10:22.484Z,4.10
2022-08-31T01:12:54.956Z,3.20
2022-08-31T01:15:25.285Z,3.10
2022-08-31T01:17:57.459Z,3.00
2022-08-31T01:20:49.150Z,2.90
2022-08-31T01:23:39.076Z,3.00
2022-08-31T01:26:10.063Z,3.00
2022-08-31T01:28:38.454Z,3.40
2022-08-31T01:31:23.626Z,3.00
2022-08-31T01:33:52.165Z,3.20
2022-08-31T01:36:21.783Z,3.70
2022-08-31T01:38:52.814Z,3.50
2022-08-31T01:41:22.461Z,3.60
2022-08-31T01:43:53.160Z,2.90
2022-08-31T01:46:21.818Z,3.10
2022-08-31T01:48:50.699Z,3.40
2022-08-31T01:51:22.149Z,2.70
2022-08-31T01:53:52.799Z,2.70
2022-08-31T01:56:29.502Z,3.40
2022-08-31T01:58:58.689Z,2.50
2022-08-31T02:01:35.268Z,2.50
2022-08-31T02:04:06.680Z,2.90
2022-08-31T02:06:36.553Z,2.90
2022-08-31T02:09:07.341Z,2.40
2022-08-31T02:11:36.525Z,2.20
2022-08-31T02:14:07.092Z,2.40
2022-08-31T02:16:37.357Z,2.80
2022-08-31T02:19:06.731Z,2.60
2022-08-31T02:21:36.729Z,2.70
2022-08-31T02:24:07.498Z,2.50
2022-08-31T02:26:35.878Z,2.90
2022-08-31T02:29:07.540Z,2.50
2022-08-31T02:31:36.177Z,2.70
2022-08-31T02:34:05.066Z,3.00
2022-08-31T02:36:35.717Z,2.70
2022-08-31T02:39:05.901Z,2.90
2022-08-31T02:41:34.578Z,2.80
2022-08-31T02:44:04.516Z,3.00
2022-08-31T02:46:33.918Z,2.40
2022-08-31T02:49:03.762Z,2.70
2022-08-31T02:51:32.165Z,2.90
2022-08-31T02:54:00.508Z,3.00
2022-08-31T02:56:28.884Z,3.00
2022-08-31T02:58:57.285Z,2.90
2022-08-31T03:01:29.390Z,3.40
2022-08-31T03:03:58.465Z,3.90
2022-08-31T03:06:27.012Z,2.60
2022-08-31T03:08:55.664Z,3.30
2022-08-31T03:11:23.969Z,3.00
2022-08-31T03:13:56.445Z,3.40
2022-08-31T03:16:27.077Z,3.80
2022-08-31T03:18:55.451Z,3.40
2022-08-31T03:21:23.821Z,3.30
2022-08-31T03:23:52.138Z,3.70
2022-08-31T03:26:20.523Z,3.20
2022-08-31T03:28:48.898Z,2.70
2022-08-31T03:31:17.321Z,3.60
2022-08-31T03:33:45.698Z,3.70
2022-08-31T03:36:15.902Z,3.00
2022-08-31T03:38:44.337Z,3.20
2022-08-31T03:41:20.293Z,3.40
2022-08-31T03:43:48.691Z,3.20
2022-08-31T03:46:17.122Z,4.30
2022-08-31T03:48:48.796Z,3.60
2022-08-31T03:51:20.396Z,3.40
2022-08-31T03:53:48.772Z,3.80
2022-08-31T03:56:17.185Z,3.20
2022-08-31T03:58:46.257Z,3.40
2022-08-31T04:01:15.217Z,3.70
2022-08-31T04:03:43.614Z,4.30
2022-08-31T04:06:13.487Z,3.30
2022-08-31T04:08:42.334Z,4.50
2022-08-31T04:11:16.034Z,3.80
2022-08-31T04:13:44.790Z,4.00
2022-08-31T04:16:17.271Z,3.70
2022-08-31T04:18:47.495Z,4.50
2022-08-31T04:21:21.488Z,4.00
2022-08-31T04:23:51.536Z,3.90
2022-08-31T04:26:25.531Z,3.70
2022-08-31T04:28:54.797Z,3.40
2022-08-31T04:31:27.916Z,3.90
2022-08-31T04:33:57.570Z,3.60
2022-08-31T04:36:29.126Z,3.70
2022-08-31T04:39:00.693Z,3.50
2022-08-31T04:41:32.254Z,4.60
2022-08-31T04:44:03.874Z,3.90
2022-08-31T04:46:36.234Z,3.60
2022-08-31T04:49:05.313Z,3.90
2022-08-31T04:51:36.689Z,4.50
2022-08-31T04:54:10.215Z,3.70
2022-08-31T04:56:44.031Z,4.00
2022-08-31T04:59:16.330Z,4.60
2022-08-31T05:01:46.326Z,3.60
2022-08-31T05:04:16.375Z,3.60
2022-08-31T05:06:47.000Z,3.50
2022-08-31T05:09:22.762Z,3.90
2022-08-31T05:11:53.460Z,4.30
2022-08-31T05:14:23.815Z,3.80
2022-08-31T05:16:52.846Z,3.90
2022-08-31T05:19:23.707Z,4.10
2022-08-31T05:21:52.082Z,4.10
2022-08-31T05:24:22.903Z,4.50
2022-08-31T05:26:55.389Z,4.50
2022-08-31T05:29:26.328Z,4.40
2022-08-31T05:31:54.955Z,4.20
2022-08-31T05:34:23.972Z,4.30
2022-08-31T05:36:56.118Z,5.20
2022-08-31T05:39:26.214Z,5.10
2022-08-31T05:41:54.873Z,3.90
2022-08-31T05:44:23.672Z,4.50
2022-08-31T05:47:03.463Z,4.60
2022-08-31T05:49:33.887Z,5.00
2022-08-31T05:52:03.474Z,4.70
2022-08-31T05:54:36.726Z,4.00
2022-08-31T05:57:05.365Z,4.50
2022-08-31T05:59:35.438Z,4.00
2022-08-31T06:02:05.029Z,5.10
2022-08-31T06:04:33.345Z,4.60
2022-08-31T06:07:01.711Z,4.20
2022-08-31T06:09:30.012Z,4.30
2022-08-31T06:11:58.500Z,4.10
2022-08-31T06:14:27.063Z,4.80
2022-08-31T06:16:56.270Z,3.80
2022-08-31T06:19:24.643Z,3.60
2022-08-31T06:21:53.036Z,3.50
2022-08-31T06:24:21.552Z,4.30
2022-08-31T06:26:58.441Z,4.60
2022-08-31T06:29:31.484Z,3.50
2022-08-31T06:32:00.861Z,3.60
2022-08-31T06:34:29.424Z,3.60
2022-08-31T06:36:57.956Z,3.10
2022-08-31T06:39:26.644Z,3.70
2022-08-31T06:41:56.143Z,3.70
2022-08-31T06:44:24.568Z,3.90
2022-08-31T06:46:53.638Z,2.80
2022-08-31T06:49:23.186Z,3.30
2022-08-31T06:51:51.803Z,3.40
2022-08-31T06:54:35.995Z,3.30
2022-08-31T06:57:04.495Z,4.20
2022-08-31T06:59:33.536Z,3.30
2022-08-31T07:02:02.937Z,3.70
2022-08-31T07:04:38.721Z,4.50
2022-08-31T07:07:11.672Z,3.50
2022-08-31T07:09:41.366Z,3.50
2022-08-31T07:12:09.951Z,4.40
2022-08-31T07:14:38.456Z,3.10
2022-08-31T07:17:08.466Z,3.60
2022-08-31T07:19:36.867Z,3.10
2022-08-31T07:22:11.444Z,2.80
2022-08-31T07:24:44.057Z,3.20
2022-08-31T07:27:16.643Z,2.90
2022-08-31T07:29:45.357Z,2.80
2022-08-31T07:32:15.881Z,3.10
2022-08-31T07:34:44.659Z,2.70
2022-08-31T07:37:31.677Z,3.00
2022-08-31T07:40:18.888Z,2.90
2022-08-31T07:42:47.498Z,3.10
2022-08-31T07:45:29.157Z,3.00
2022-08-31T07:48:00.595Z,3.20
2022-08-31T07:50:31.808Z,2.50
2022-08-31T07:55:26.669Z,2.50
2022-08-31T07:57:56.557Z,3.20
2022-08-31T08:00:29.081Z,3.00
2022-08-31T08:03:01.876Z,2.60
2022-08-31T08:05:38.904Z,2.40
2022-08-31T08:08:13.877Z,2.80
2022-08-31T08:10:46.702Z,2.50
2022-08-31T08:13:21.337Z,2.30
2022-08-31T08:15:52.187Z,2.90
2022-08-31T08:18:21.227Z,2.50
2022-08-31T08:20:52.419Z,3.20
2022-08-31T08:23:28.552Z,3.70
2022-08-31T08:26:01.355Z,2.80
2022-08-31T08:28:40.061Z,2.50
2022-08-31T08:31:19.929Z,2.30
2022-08-31T08:33:50.492Z,2.10
2022-08-31T08:36:20.042Z,2.30
2022-08-31T08:38:51.446Z,2.90
2022-08-31T08:41:27.913Z,2.30
2022-08-31T08:44:01.039Z,1.90
2022-08-31T08:47:37.851Z,1.90
2022-08-31T08:49:54.821Z,1.90
2022-08-31T08:52:30.457Z,2.00
2022-08-31T08:55:08.592Z,1.50
2022-08-31T08:57:42.795Z,1.60
2022-08-31T09:00:20.776Z,1.50
2022-08-31T09:03:01.229Z,1.80
2022-08-31T09:05:44.612Z,1.60
2022-08-31T09:08:32.366Z,1.80
2022-08-31T09:11:24.316Z,1.90
2022-08-31T09:14:25.644Z,1.60
2022-08-31T09:17:44.994Z,1.50
2022-08-31T09:20:15.705Z,1.50
2022-08-31T09:22:55.660Z,2.00
2022-08-31T09:25:52.476Z,1.90
2022-08-31T09:28:49.967Z,1.80
2022-08-31T09:31:42.348Z,2.10
2022-08-31T09:34:32.735Z,1.90
2022-08-31T09:37:33.985Z,1.70
2022-08-31T09:40:32.013Z,1.50
2022-08-31T09:43:37.602Z,2.20
2022-08-31T09:48:56.272Z,2.00
2022-08-31T09:51:37.532Z,2.00
2022-08-31T09:54:33.896Z,2.10
2022-08-31T09:57:06.530Z,1.50
2022-08-31T09:59:43.897Z,1.50
2022-08-31T10:02:22.825Z,1.80
2022-08-31T10:04:56.636Z,1.40
2022-08-31T10:07:44.172Z,1.40
2022-08-31T10:10:30.163Z,1.30
2022-08-31T10:13:20.600Z,0.90
2022-08-31T10:16:14.683Z,1.60
2022-08-31T10:19:03.316Z,1.90
2022-08-31T10:21:54.281Z,1.60
2022-08-31T10:24:46.204Z,1.40
2022-08-31T10:27:38.543Z,1.10
2022-08-31T10:30:09.775Z,1.20
2022-08-31T10:32:57.802Z,1.30
2022-08-31T10:35:37.647Z,1.50
2022-08-31T10:38:27.253Z,1.40
2022-08-31T10:41:17.090Z,1.80
2022-08-31T10:44:17.868Z,1.60
2022-08-31T10:46:46.344Z,1.70
2022-08-31T10:49:14.728Z,1.60
2022-08-31T10:52:03.525Z,2.30
2022-08-31T10:55:07.477Z,1.10
2022-08-31T10:58:08.981Z,1.10
2022-08-31T11:01:17.120Z,1.50
2022-08-31T11:04:08.836Z,1.30
2022-08-31T11:07:12.334Z,1.20
2022-08-31T11:09:51.135Z,1.40
2022-08-31T11:12:27.566Z,1.60
2022-08-31T11:15:22.564Z,1.00
2022-08-31T11:18:47.911Z,1.60
2022-08-31T11:21:46.925Z,1.60
2022-08-31T11:24:39.931Z,1.10
2022-08-31T11:27:37.014Z,1.70
2022-08-31T11:30:24.552Z,1.30
2022-08-31T11:32:59.785Z,2.00
2022-08-31T11:35:49.851Z,1.90
2022-08-31T11:38:54.776Z,1.00
2022-08-31T11:41:49.103Z,1.60
2022-08-31T11:44:34.359Z,1.30
2022-08-31T11:47:28.356Z,1.10
2022-08-31T11:50:11.611Z,1.00
2022-08-31T11:52:48.335Z,1.20
2022-08-31T11:55:23.522Z,1.10
2022-08-31T11:58:07.330Z,1.30
2022-08-31T12:00:52.315Z,1.20
2022-08-31T12:04:03.687Z,1.60
2022-08-31T12:06:37.263Z,1.10
2022-08-31T12:09:38.038Z,1.10
2022-08-31T12:12:31.443Z,1.20
2022-08-31T12:15:43.332Z,1.00
2022-08-31T12:18:44.949Z,1.20
2022-08-31T12:21:47.214Z,1.00
2022-08-31T12:24:54.259Z,0.90
2022-08-31T12:28:09.379Z,1.30
2022-08-31T12:36:30.153Z,1.50
2022-08-31T12:39:21.437Z,1.30
2022-08-31T12:41:55.478Z,1.10
2022-08-31T12:44:32.173Z,1.30
2022-08-31T12:47:38.013Z,1.50
2022-08-31T12:53:25.445Z,1.30
2022-08-31T12:56:07.080Z,0.90
2022-08-31T12:59:03.276Z,1.10
2022-08-31T13:01:32.449Z,1.00
2022-08-31T13:04:03.595Z,1.10
2022-08-31T13:06:37.033Z,1.10
2022-08-31T13:09:06.602Z,1.20
2022-08-31T13:11:41.635Z,1.80
2022-08-31T13:14:24.644Z,1.30
2022-08-31T13:17:04.856Z,1.50
2022-08-31T13:19:35.259Z,1.10
2022-08-31T13:22:17.254Z,0.80
2022-08-31T13:24:53.734Z,1.00
2022-08-31T13:27:28.671Z,2.00
2022-08-31T13:30:19.341Z,1.30
2022-08-31T13:32:51.224Z,0.70
2022-08-31T13:35:25.968Z,1.20
2022-08-31T13:38:07.921Z,1.20
2022-08-31T13:40:39.957Z,0.80
2022-08-31T13:43:10.916Z,1.20
2022-08-31T13:46:08.882Z,1.20
2022-08-31T13:48:38.762Z,1.10
2022-08-31T13:51:17.211Z,1.10
2022-08-31T13:53:54.447Z,1.20
2022-08-31T13:56:57.854Z,1.30
2022-08-31T13:59:34.013Z,0.90
2022-08-31T14:02:36.377Z,1.10
2022-08-31T14:05:08.636Z,0.90
2022-08-31T14:07:40.983Z,1.10
2022-08-31T14:10:32.881Z,1.60
2022-08-31T14:13:15.469Z,1.20
2022-08-31T14:15:58.149Z,0.90
2022-08-31T14:18:40.251Z,1.60
2022-08-31T14:21:27.445Z,1.10
2022-08-31T14:24:02.372Z,1.00
2022-08-31T14:26:36.973Z,0.80
2022-08-31T14:29:14.909Z,0.80
2022-08-31T14:31:52.515Z,1.40
2022-08-31T14:34:32.359Z,1.20
2022-08-31T14:37:06.942Z,1.00
2022-08-31T14:39:45.564Z,1.10
2022-08-31T14:42:20.223Z,1.20
2022-08-31T14:44:56.790Z,1.30
2022-08-31T14:47:31.678Z,1.10
2022-08-31T14:50:05.523Z,0.80
2022-08-31T14:52:42.106Z,1.30
2022-08-31T14:55:12.679Z,1.30
2022-08-31T14:57:45.998Z,1.20
2022-08-31T15:00:22.026Z,1.10
2022-08-31T15:02:56.247Z,0.90
2022-08-31T15:05:25.965Z,1.00
2022-08-31T15:07:55.751Z,1.10
2022-08-31T15:10:25.935Z,1.50
2022-08-31T15:12:55.415Z,0.80
2022-08-31T15:15:23.810Z,0.90
2022-08-31T15:17:52.941Z,0.90
2022-08-31T15:20:22.989Z,0.90
2022-08-31T15:22:51.451Z,1.70
2022-08-31T15:25:20.879Z,1.20
2022-08-31T15:27:49.445Z,0.90
2022-08-31T15:30:20.172Z,1.00
2022-08-31T15:32:48.877Z,1.40
2022-08-31T15:35:24.270Z,1.10
2022-08-31T15:37:59.019Z,0.70
2022-08-31T15:40:39.181Z,1.20
2022-08-31T15:43:09.691Z,1.50
2022-08-31T15:45:38.258Z,1.20
2022-08-31T15:48:25.792Z,1.70
2022-08-31T15:51:00.347Z,0.80
2022-08-31T15:53:30.987Z,0.90
2022-08-31T15:56:06.734Z,0.90
2022-08-31T15:58:39.219Z,0.90
2022-08-31T16:01:16.131Z,0.70
2022-08-31T16:03:53.535Z,1.20
2022-08-31T16:06:27.217Z,1.10
2022-08-31T16:08:56.054Z,0.80
2022-08-31T16:11:28.914Z,1.10
2022-08-31T16:14:00.902Z,0.90
2022-08-31T16:16:37.153Z,0.80
2022-08-31T16:19:08.620Z,1.30
2022-08-31T16:21:40.972Z,1.20
2022-08-31T16:24:12.961Z,1.00
2022-08-31T16:26:45.830Z,1.20
2022-08-31T16:29:21.144Z,1.20
2022-08-31T16:31:50.963Z,1.30
2022-08-31T16:34:19.790Z,0.70
2022-08-31T16:36:53.044Z,1.00
2022-08-31T16:39:24.355Z,0.90
2022-08-31T16:41:54.754Z,0.90
2022-08-31T16:44:23.078Z,1.10
2022-08-31T16:46:53.767Z,0.80
2022-08-31T16:49:34.573Z,0.90
2022-08-31T16:52:11.138Z,0.70
2022-08-31T16:54:48.527Z,0.70
2022-08-31T16:57:25.542Z,1.00
2022-08-31T16:59:57.071Z,1.00
2022-08-31T17:02:26.739Z,0.80
2022-08-31T17:05:00.639Z,0.80
2022-08-31T17:07:29.256Z,0.80
2022-08-31T17:10:06.917Z,0.60
2022-08-31T17:12:37.039Z,1.20
2022-08-31T17:15:06.456Z,1.00
2022-08-31T17:17:35.063Z,1.00
2022-08-31T17:20:05.094Z,0.80
2022-08-31T17:22:33.891Z,1.20
2022-08-31T17:25:04.422Z,1.00
2022-08-31T17:27:35.183Z,1.40
2022-08-31T17:30:07.297Z,1.00
2022-08-31T17:32:39.292Z,1.00
2022-08-31T17:35:19.106Z,1.30
2022-08-31T17:37:49.976Z,0.90
2022-08-31T17:40:18.770Z,1.40
2022-08-31T17:42:48.548Z,1.20
2022-08-31T17:45:18.901Z,1.20
2022-08-31T17:47:47.830Z,1.60
2022-08-31T17:50:22.033Z,1.30
2022-08-31T17:52:51.133Z,1.50
2022-08-31T17:55:19.841Z,1.50
2022-08-31T17:57:48.598Z,1.50
2022-08-31T18:00:17.197Z,1.40
2022-08-31T18:02:46.194Z,1.80
2022-08-31T18:05:16.273Z,1.50
2022-08-31T18:07:44.729Z,2.00
2022-08-31T18:10:14.803Z,2.10
2022-08-31T18:12:43.262Z,1.50
2022-08-31T18:15:19.123Z,1.70
2022-08-31T18:17:48.152Z,1.90
2022-08-31T18:20:16.701Z,1.70
2022-08-31T18:22:50.081Z,2.00
2022-08-31T18:25:21.351Z,2.00
2022-08-31T18:27:49.717Z,2.10
2022-08-31T18:30:19.170Z,1.80
2022-08-31T18:32:49.568Z,2.10
2022-08-31T18:35:18.020Z,1.40
2022-08-31T18:37:46.634Z,1.60
2022-08-31T18:40:33.996Z,1.80
2022-08-31T18:43:21.273Z,1.40
2022-08-31T18:45:51.447Z,1.40
2022-08-31T18:48:26.175Z,1.70
2022-08-31T18:50:59.223Z,1.80
2022-08-31T18:53:30.344Z,1.80
2022-08-31T18:56:09.232Z,1.70
2022-08-31T18:58:38.760Z,1.90
2022-08-31T19:01:10.555Z,1.70
2022-08-31T19:03:40.978Z,1.60
2022-08-31T19:06:19.555Z,2.20
2022-08-31T19:08:48.928Z,1.80
2022-08-31T19:11:19.338Z,2.00
2022-08-31T19:13:51.307Z,1.60
2022-08-31T19:16:26.459Z,1.80
2022-08-31T19:18:56.674Z,1.70
2022-08-31T19:21:33.367Z,1.80
2022-08-31T19:24:06.041Z,2.00
2022-08-31T19:26:49.682Z,1.90
2022-08-31T19:29:25.591Z,2.40
2022-08-31T19:31:56.704Z,3.20
2022-08-31T19:34:31.165Z,10.20
2022-08-31T19:37:01.090Z,5.20
2022-08-31T19:39:34.531Z,3.60
2022-08-31T19:42:08.037Z,2.80
2022-08-31T19:44:54.997Z,2.90
2022-08-31T19:47:27.768Z,2.70
2022-08-31T19:49:56.210Z,3.10
2022-08-31T19:52:25.874Z,3.20
2022-08-31T19:54:54.786Z,2.90
2022-08-31T19:57:23.348Z,2.90
2022-08-31T19:59:51.674Z,3.20
2022-08-31T20:02:20.204Z,2.70
2022-08-31T20:04:48.623Z,2.40
2022-08-31T20:07:17.134Z,2.80
2022-08-31T20:09:46.073Z,2.90
2022-08-31T20:12:14.418Z,2.90
2022-08-31T20:14:44.596Z,2.70
2022-08-31T20:17:13.141Z,3.30
2022-08-31T20:19:42.808Z,3.20
2022-08-31T20:22:12.502Z,3.40
2022-08-31T20:24:43.963Z,3.10
2022-08-31T20:27:18.447Z,2.50
2022-08-31T20:29:48.243Z,3.30
2022-08-31T20:32:16.816Z,2.70
2022-08-31T20:34:45.314Z,2.50
2022-08-31T20:37:13.851Z,2.60
2022-08-31T20:39:42.334Z,2.80
2022-08-31T20:42:10.634Z,2.70
2022-08-31T20:44:39.478Z,2.60
2022-08-31T20:47:29.242Z,2.20
2022-08-31T20:50:03.951Z,2.80
2022-08-31T20:52:35.160Z,2.40
2022-08-31T20:55:07.456Z,2.20
2022-08-31T20:57:40.380Z,2.60
2022-08-31T21:00:10.860Z,3.00
2022-08-31T21:02:42.090Z,2.80
2022-08-31T21:08:00.016Z,3.90
2022-08-31T21:10:36.801Z,3.80
2022-08-31T21:13:12.790Z,3.30
2022-08-31T21:15:45.609Z,3.30
2022-08-31T21:18:19.106Z,3.70
2022-08-31T21:20:48.549Z,2.60
2022-08-31T21:23:17.421Z,3.70
2022-08-31T21:25:46.642Z,3.30
2022-08-31T21:28:18.576Z,2.10
2022-08-31T21:30:50.091Z,2.60
2022-08-31T21:33:19.095Z,3.00
2022-08-31T21:35:47.965Z,2.80
2022-08-31T21:38:18.187Z,2.50
2022-08-31T21:40:50.215Z,3.10
2022-08-31T21:43:19.763Z,3.30
2022-08-31T21:45:50.251Z,2.30
2022-08-31T21:50:56.667Z,2.80
2022-08-31T21:53:27.385Z,3.70
2022-08-31T21:55:55.711Z,3.40
2022-08-31T21:58:24.132Z,2.40
2022-08-31T22:00:55.481Z,2.90
2022-08-31T22:03:23.842Z,2.60
2022-08-31T22:05:53.403Z,3.20
2022-08-31T22:08:26.160Z,3.00
2022-08-31T22:10:55.579Z,3.00
2022-08-31T22:13:23.972Z,2.50
2022-08-31T22:15:52.792Z,3.10
2022-08-31T22:21:34.613Z,2.40
2022-08-31T22:24:08.135Z,2.40
2022-08-31T22:26:41.818Z,2.40
2022-08-31T22:29:12.684Z,2.30
2022-08-31T22:31:42.095Z,3.00
2022-08-31T22:34:11.641Z,3.10
2022-08-31T22:36:40.694Z,2.80
2022-08-31T22:39:15.000Z,3.40
2022-08-31T22:41:44.561Z,3.00
2022-08-31T22:44:17.519Z,2.90
2022-08-31T22:46:46.616Z,2.80
2022-08-31T22:49:15.429Z,2.90
2022-08-31T22:51:47.678Z,2.20
2022-08-31T22:54:19.446Z,3.50
2022-08-31T22:56:49.086Z,2.80
2022-08-31T22:59:26.188Z,3.40
2022-08-31T23:02:03.674Z,3.10
2022-08-31T23:04:34.324Z,3.20
2022-08-31T23:07:04.392Z,3.40
2022-08-31T23:09:34.146Z,2.80
2022-08-31T23:12:05.343Z,3.50
2022-08-31T23:14:34.033Z,3.40
2022-08-31T23:17:08.730Z,2.90
2022-08-31T23:19:42.321Z,3.20
2022-08-31T23:22:15.228Z,3.20
2022-08-31T23:24:47.934Z,2.70
2022-08-31T23:27:21.744Z,3.30
2022-08-31T23:29:56.007Z,3.20
2022-08-31T23:32:28.024Z,4.10
2022-08-31T23:34:58.176Z,3.10
2022-08-31T23:37:27.497Z,2.70
2022-08-31T23:39:58.166Z,3.40
2022-08-31T23:42:28.488Z,3.00
2022-08-31T23:44:58.028Z,3.40
2022-08-31T23:47:30.367Z,3.10
2022-08-31T23:49:59.410Z,3.60
2022-08-31T23:52:29.671Z,3.40
2022-08-31T23:54:59.798Z,3.50
2022-08-31T23:57:32.551Z,3.50
